Time;durP1;ratioP1;P1;durP2;ratioP2;P2;SDS_P1;SDS_P2;PMS_P1;PMS_P2;Temp;Humidity;BMP_temperature;BMP_pressure;BME280_temperature;BME280_humidity;BME280_pressure;Samples;Min_cycle;Max_cycle;Signal;HPM_P1;HPM_P2
2023/09/02 00:02:03;;;;;;;11.00;3.30;;;20.80;99.90;;;;;;5093459;28;20028;-60
2023/09/02 00:04:29;;;;;;;11.95;2.78;;;20.80;99.90;;;;;;5093932;28;20040;-59
2023/09/02 00:06:55;;;;;;;12.82;2.83;;;20.80;99.90;;;;;;5094012;28;20480;-61
2023/09/02 00:09:20;;;;;;;15.00;3.03;;;20.80;99.90;;;;;;5093067;28;20068;-60
2023/09/02 00:11:46;;;;;;;13.57;2.50;;;20.80;99.90;;;;;;5093808;28;20035;-60
2023/09/02 00:14:12;;;;;;;9.57;2.67;;;20.70;99.90;;;;;;5093474;28;20484;-61
2023/09/02 00:16:38;;;;;;;8.45;2.30;;;20.60;99.90;;;;;;5093585;28;20499;-60
2023/09/02 00:19:04;;;;;;;9.15;3.00;;;20.70;99.90;;;;;;5075336;28;20032;-61
2023/09/02 00:21:31;;;;;;;5.72;2.30;;;20.90;99.90;;;;;;5093438;28;20039;-61
2023/09/02 00:24:07;;;;;;;8.00;2.35;;;21.00;99.90;;;;;;5093548;28;20035;-61
2023/09/02 00:26:33;;;;;;;6.00;2.00;;;21.20;99.90;;;;;;5093368;28;20066;-61
2023/09/02 00:29:00;;;;;;;5.30;2.28;;;21.20;99.90;;;;;;5093449;28;20077;-61
2023/09/02 00:31:27;;;;;;;5.38;1.98;;;21.30;99.90;;;;;;5092975;28;20024;-61
2023/09/02 00:33:53;;;;;;;5.30;2.17;;;21.30;99.90;;;;;;5093560;28;20103;-61
2023/09/02 00:36:19;;;;;;;4.03;1.60;;;21.30;99.90;;;;;;5093469;28;20107;-61
2023/09/02 00:38:45;;;;;;;3.33;1.38;;;21.30;99.90;;;;;;5093339;28;20047;-61
2023/09/02 00:41:16;;;;;;;1.98;1.10;;;21.40;99.90;;;;;;5093089;28;20028;-61
2023/09/02 00:43:42;;;;;;;3.35;1.48;;;21.20;99.90;;;;;;5093087;28;20043;-61
2023/09/02 00:46:09;;;;;;;1.75;1.30;;;21.20;99.90;;;;;;5092740;28;20549;-62
2023/09/02 00:48:36;;;;;;;2.90;1.58;;;21.30;99.90;;;;;;5093213;28;20085;-61
2023/09/02 00:51:02;;;;;;;1.77;1.30;;;21.30;99.90;;;;;;5093102;28;20024;-61
2023/09/02 00:53:28;;;;;;;2.35;1.42;;;21.20;99.90;;;;;;5092980;28;20497;-60
2023/09/02 00:55:54;;;;;;;1.73;1.38;;;21.30;99.90;;;;;;5092945;28;20020;-61
2023/09/02 00:58:20;;;;;;;1.83;1.20;;;21.10;99.90;;;;;;5092799;28;20039;-61
2023/09/02 01:00:47;;;;;;;2.05;1.20;;;20.80;99.90;;;;;;5092374;28;20372;-61
2023/09/02 01:03:14;;;;;;;3.47;1.40;;;20.70;99.90;;;;;;5092832;28;20130;-61
2023/09/02 01:05:40;;;;;;;1.67;1.30;;;20.50;99.90;;;;;;5092926;28;20035;-62
2023/09/02 01:08:06;;;;;;;2.83;1.40;;;20.50;99.90;;;;;;5092517;28;20040;-61
2023/09/02 01:10:37;;;;;;;1.90;1.35;;;20.50;99.90;;;;;;5092669;28;20028;-62
2023/09/02 01:13:04;;;;;;;2.67;1.42;;;20.40;99.90;;;;;;5092693;28;20032;-62
2023/09/02 01:15:31;;;;;;;3.88;1.17;;;20.30;99.90;;;;;;5092092;28;20082;-61
2023/09/02 01:17:57;;;;;;;1.80;1.20;;;20.30;99.90;;;;;;5092844;28;20031;-61
2023/09/02 01:20:27;;;;;;;3.28;1.42;;;20.20;99.90;;;;;;5092168;28;20438;-61
2023/09/02 01:23:46;;;;;;;3.63;1.48;;;20.20;99.90;;;;;;5091738;28;20023;-61
2023/09/02 01:26:48;;;;;;;2.47;1.50;;;20.10;99.90;;;;;;5009825;28;20030;-61
2023/09/02 01:29:20;;;;;;;1.50;1.40;;;20.10;99.90;;;;;;5009847;28;20073;-61
2023/09/02 01:31:47;;;;;;;1.67;1.40;;;20.10;99.90;;;;;;5010097;28;20427;-61
2023/09/02 01:34:16;;;;;;;2.22;1.30;;;20.10;99.90;;;;;;5010361;28;20440;-61
2023/09/02 01:36:46;;;;;;;2.15;1.20;;;20.00;99.90;;;;;;5009919;28;20045;-62
2023/09/02 01:39:14;;;;;;;2.30;1.30;;;20.00;99.90;;;;;;5009918;28;20038;-61
2023/09/02 01:41:41;;;;;;;1.30;1.02;;;20.00;99.90;;;;;;5010297;28;20065;-61
2023/09/02 01:44:10;;;;;;;1.98;1.15;;;20.30;99.90;;;;;;5009146;28;20048;-61
2023/09/02 01:46:36;;;;;;;2.80;1.20;;;20.30;99.90;;;;;;5009895;28;20450;-61
2023/09/02 01:49:02;;;;;;;1.95;1.38;;;20.50;99.90;;;;;;5009908;28;20037;-61
2023/09/02 01:51:29;;;;;;;1.75;1.42;;;20.50;99.90;;;;;;5009413;28;20538;-61
2023/09/02 01:53:55;;;;;;;2.28;1.30;;;20.50;99.90;;;;;;5009680;28;20029;-61
2023/09/02 01:56:21;;;;;;;1.95;1.27;;;20.50;99.90;;;;;;5038837;28;20516;-61
2023/09/02 01:58:49;;;;;;;3.45;1.40;;;20.50;99.90;;;;;;5091277;28;20023;-61
2023/09/02 02:01:15;;;;;;;1.70;1.33;;;20.40;99.90;;;;;;5091685;28;20473;-61
2023/09/02 02:04:01;;;;;;;4.05;1.33;;;20.40;99.90;;;;;;5091640;28;20032;-61
2023/09/02 02:06:29;;;;;;;1.90;1.38;;;20.40;99.90;;;;;;5091988;28;20028;-61
2023/09/02 02:09:13;;;;;;;1.98;1.27;;;20.40;99.90;;;;;;5091676;28;20024;-61
2023/09/02 02:11:38;;;;;;;;;;;20.30;99.90;;;;;;5092146;28;20066;-61
2023/09/02 02:14:06;;;;;;;2.60;1.20;;;20.20;99.90;;;;;;5091063;28;19904;-61
2023/09/02 02:16:32;;;;;;;2.90;1.15;;;20.20;99.90;;;;;;5091585;28;20051;-61
2023/09/02 02:18:59;;;;;;;2.08;1.50;;;20.10;99.90;;;;;;5091576;28;20024;-61
2023/09/02 02:21:26;;;;;;;2.00;1.40;;;19.90;99.90;;;;;;5091426;28;20028;-61
2023/09/02 02:23:52;;;;;;;2.97;1.40;;;19.80;99.90;;;;;;5091362;28;20474;-61
2023/09/02 02:26:17;;;;;;;2.33;1.60;;;19.70;99.90;;;;;;5091277;28;20052;-61
2023/09/02 02:28:43;;;;;;;2.83;1.50;;;19.70;99.90;;;;;;5090928;28;20052;-62
2023/09/02 02:31:09;;;;;;;6.43;1.80;;;19.60;99.90;;;;;;5091661;28;20096;-62
2023/09/02 02:33:38;;;;;;;3.33;1.75;;;19.50;99.90;;;;;;5091147;28;20177;-61
2023/09/02 02:36:05;;;;;;;3.80;1.50;;;19.50;99.90;;;;;;5091391;28;20016;-61
2023/09/02 02:38:30;;;;;;;2.30;1.60;;;19.40;99.90;;;;;;5091219;28;20031;-61
2023/09/02 02:40:56;;;;;;;3.40;1.52;;;19.40;99.90;;;;;;5091133;28;20028;-61
2023/09/02 02:43:28;;;;;;;2.40;1.40;;;19.30;99.90;;;;;;5090941;28;20481;-62
2023/09/02 02:45:54;;;;;;;2.00;1.60;;;19.30;99.90;;;;;;5091232;28;20024;-61
2023/09/02 02:48:22;;;;;;;2.45;1.60;;;19.20;99.90;;;;;;5091262;28;20028;-61
2023/09/02 02:50:48;;;;;;;2.75;1.50;;;19.30;99.90;;;;;;5090924;28;20028;-61
2023/09/02 02:53:13;;;;;;;2.42;1.58;;;19.30;99.90;;;;;;5091644;28;20402;-61
2023/09/02 02:55:41;;;;;;;3.75;1.83;;;19.30;99.90;;;;;;5090568;28;20024;-61
2023/09/02 02:58:07;;;;;;;2.45;1.60;;;19.20;99.90;;;;;;5091044;28;20040;-61
2023/09/02 03:00:33;;;;;;;3.38;1.60;;;19.20;99.90;;;;;;5091105;28;20363;-61
2023/09/02 03:02:58;;;;;;;3.88;1.80;;;19.30;99.90;;;;;;5090694;28;20039;-62
2023/09/02 03:05:24;;;;;;;2.95;1.65;;;19.40;99.90;;;;;;5091091;28;20070;-62
2023/09/02 03:07:50;;;;;;;2.58;1.60;;;19.60;99.90;;;;;;5091086;28;20032;-61
2023/09/02 03:10:16;;;;;;;2.95;1.80;;;19.60;99.90;;;;;;5090557;28;20028;-61
2023/09/02 03:12:42;;;;;;;2.80;1.70;;;19.60;99.90;;;;;;5091190;28;20294;-61
2023/09/02 03:15:07;;;;;;;3.90;1.70;;;19.70;99.90;;;;;;5090998;28;20523;-61
2023/09/02 03:17:33;;;;;;;2.47;1.40;;;19.70;99.90;;;;;;5090903;28;20035;-62
2023/09/02 03:19:59;;;;;;;4.50;2.03;;;19.80;99.90;;;;;;5091189;28;20039;-61
2023/09/02 03:22:24;;;;;;;2.72;1.65;;;19.90;99.90;;;;;;5090884;28;20449;-61
2023/09/02 03:24:54;;;;;;;2.05;1.60;;;20.00;99.90;;;;;;5090353;28;20069;-61
2023/09/02 03:27:20;;;;;;;2.35;1.73;;;20.00;99.90;;;;;;5090621;28;20040;-61
2023/09/02 03:29:49;;;;;;;2.90;1.70;;;20.00;99.90;;;;;;5090817;28;20024;-61
2023/09/02 03:32:15;;;;;;;2.78;1.63;;;20.00;99.90;;;;;;5090995;28;20051;-61
2023/09/02 03:34:40;;;;;;;3.35;1.80;;;19.80;99.90;;;;;;5090819;28;20051;-61
2023/09/02 03:37:06;;;;;;;4.75;1.95;;;19.70;99.90;;;;;;5090802;28;20028;-61
2023/09/02 03:39:33;;;;;;;5.22;2.03;;;19.60;99.90;;;;;;5090276;28;20036;-61
2023/09/02 03:41:59;;;;;;;3.70;2.00;;;19.50;99.90;;;;;;5091156;28;20269;-61
2023/09/02 03:44:25;;;;;;;3.83;1.80;;;19.40;99.90;;;;;;5091352;28;20040;-61
2023/09/02 03:46:51;;;;;;;3.22;1.90;;;19.30;99.90;;;;;;5094130;28;20595;-61
2023/09/02 03:49:17;;;;;;;4.43;2.00;;;19.30;99.90;;;;;;5094364;28;20515;-61
2023/09/02 03:51:43;;;;;;;4.88;2.10;;;19.20;99.90;;;;;;5076188;28;20032;-61
2023/09/02 03:54:09;;;;;;;6.18;2.20;;;19.20;99.90;;;;;;5093651;28;20020;-61
2023/09/02 03:56:36;;;;;;;2.97;2.20;;;19.10;99.90;;;;;;5094229;28;20024;-61
2023/09/02 03:59:04;;;;;;;3.15;2.20;;;19.10;99.90;;;;;;5094141;28;20074;-61
2023/09/02 04:01:31;;;;;;;4.10;2.15;;;19.00;99.90;;;;;;5094192;28;20024;-61
2023/09/02 04:03:56;;;;;;;4.10;2.08;;;19.00;99.90;;;;;;5094298;28;20133;-61
2023/09/02 04:06:22;;;;;;;5.88;2.42;;;19.00;99.90;;;;;;5093960;28;20095;-61
2023/09/02 04:08:48;;;;;;;3.40;2.35;;;19.00;99.90;;;;;;5093294;28;20028;-61
2023/09/02 04:11:14;;;;;;;2.90;2.45;;;19.00;99.90;;;;;;5093763;28;20062;-61
2023/09/02 04:13:41;;;;;;;3.28;2.42;;;19.00;99.90;;;;;;5094142;28;20028;-61
2023/09/02 04:16:09;;;;;;;4.07;2.88;;;18.90;99.90;;;;;;5093654;28;20060;-61
2023/09/02 04:18:35;;;;;;;5.35;2.60;;;18.90;99.90;;;;;;5093791;28;20075;-61
2023/09/02 04:21:01;;;;;;;3.63;2.60;;;18.90;99.90;;;;;;5093539;28;20473;-61
2023/09/02 04:23:26;;;;;;;4.38;2.70;;;19.10;99.90;;;;;;5093410;28;20040;-62
2023/09/02 04:25:54;;;;;;;5.55;3.10;;;19.20;99.90;;;;;;5093649;28;20032;-61
2023/09/02 04:28:20;;;;;;;3.45;2.78;;;19.20;99.90;;;;;;5060157;28;20544;-61
2023/09/02 04:30:47;;;;;;;4.50;3.05;;;19.30;99.90;;;;;;5053406;28;20100;-61
2023/09/02 04:33:13;;;;;;;4.60;2.90;;;19.40;99.90;;;;;;5053440;28;20120;-61
2023/09/02 04:35:41;;;;;;;4.40;3.00;;;19.40;99.90;;;;;;5035110;28;20032;-61
2023/09/02 04:38:07;;;;;;;4.28;3.00;;;19.50;99.90;;;;;;5052319;28;20124;-61
2023/09/02 04:40:37;;;;;;;4.95;3.15;;;19.50;99.90;;;;;;5053145;28;20390;-61
2023/09/02 04:43:04;;;;;;;4.03;3.22;;;19.40;99.90;;;;;;5053179;28;20040;-61
2023/09/02 04:45:34;;;;;;;4.20;3.78;;;19.40;99.90;;;;;;5052841;28;20028;-61
2023/09/02 04:48:01;;;;;;;6.15;4.50;;;19.40;99.90;;;;;;5052926;28;20065;-61
2023/09/02 04:50:27;;;;;;;4.50;4.10;;;19.40;99.90;;;;;;5053066;28;20692;-61
2023/09/02 04:52:53;;;;;;;5.63;4.47;;;19.40;99.90;;;;;;5052335;28;20025;-61
2023/09/02 04:55:21;;;;;;;6.53;4.65;;;19.30;99.90;;;;;;5052738;28;20112;-61
2023/09/02 04:57:47;;;;;;;6.28;5.05;;;19.20;99.90;;;;;;5052547;28;20482;-61
2023/09/02 05:00:13;;;;;;;7.35;5.40;;;19.00;99.90;;;;;;5052604;28;20036;-61
2023/09/02 05:02:43;;;;;;;7.55;6.10;;;18.90;99.90;;;;;;5052999;28;20033;-61
2023/09/02 05:05:10;;;;;;;10.98;6.20;;;18.80;99.90;;;;;;5052397;28;20453;-61
2023/09/02 05:07:36;;;;;;;8.00;5.95;;;18.80;99.90;;;;;;5052049;28;20501;-61
2023/09/02 05:10:02;;;;;;;7.60;6.88;;;18.80;99.90;;;;;;5052691;28;20017;-61
2023/09/02 05:12:27;;;;;;;9.77;7.93;;;18.70;99.90;;;;;;5052451;28;20112;-61
2023/09/02 05:14:53;;;;;;;9.32;7.60;;;18.70;99.90;;;;;;5052416;28;20104;-61
2023/09/02 05:17:19;;;;;;;7.63;6.43;;;18.70;99.90;;;;;;5052650;28;20409;-61
2023/09/02 05:19:45;;;;;;;7.25;6.50;;;18.80;99.90;;;;;;5052170;28;20017;-61
2023/09/02 05:22:10;;;;;;;7.38;6.20;;;18.70;99.90;;;;;;5051674;28;20025;-61
2023/09/02 05:24:36;;;;;;;6.93;5.82;;;18.80;99.90;;;;;;5034577;28;20502;-61
2023/09/02 05:27:02;;;;;;;5.90;5.10;;;18.70;99.90;;;;;;5057668;28;20056;-61
2023/09/02 05:29:27;;;;;;;5.03;4.18;;;18.70;99.90;;;;;;5071936;28;20023;-61
2023/09/02 05:31:53;;;;;;;5.78;4.20;;;18.70;99.90;;;;;;5072406;28;20032;-61
2023/09/02 05:34:19;;;;;;;5.45;3.60;;;18.70;99.90;;;;;;5071964;28;20021;-61
2023/09/02 05:36:44;;;;;;;5.60;3.83;;;18.80;99.90;;;;;;5071428;28;20039;-61
2023/09/02 05:39:10;;;;;;;6.63;3.40;;;18.80;99.90;;;;;;5071649;28;20025;-61
2023/09/02 05:41:36;;;;;;;6.10;3.30;;;18.90;99.90;;;;;;5071713;28;20043;-61
2023/09/02 05:44:01;;;;;;;4.63;2.92;;;19.10;99.90;;;;;;5071658;28;20043;-61
2023/09/02 05:46:27;;;;;;;5.40;3.03;;;19.30;99.90;;;;;;5071660;28;20492;-61
2023/09/02 05:48:53;;;;;;;5.60;2.95;;;19.40;99.90;;;;;;5072138;28;20495;-61
2023/09/02 05:51:18;;;;;;;6.07;3.20;;;19.50;99.90;;;;;;5071120;28;20094;-61
2023/09/02 05:53:49;;;;;;;6.18;2.90;;;19.60;99.90;;;;;;5071615;28;20083;-61
2023/09/02 05:56:14;;;;;;;6.50;3.25;;;19.60;99.90;;;;;;5071230;28;20091;-61
2023/09/02 05:58:40;;;;;;;6.32;3.05;;;19.60;99.90;;;;;;5071534;28;20485;-61
2023/09/02 06:01:06;;;;;;;4.13;2.78;;;19.60;99.90;;;;;;5071894;28;20115;-61
2023/09/02 06:03:31;;;;;;;5.47;2.90;;;19.60;99.90;;;;;;5053363;28;20044;-61
2023/09/02 06:05:57;;;;;;;7.22;2.78;;;19.60;99.90;;;;;;5070931;28;20032;-61
2023/09/02 06:08:23;;;;;;;3.42;2.92;;;19.80;99.90;;;;;;5052672;28;20020;-61
2023/09/02 06:11:01;;;;;;;5.55;3.20;;;19.80;99.90;;;;;;5071147;28;20052;-60
2023/09/02 06:13:27;;;;;;;4.78;3.30;;;19.60;99.90;;;;;;5071427;28;20036;-60
2023/09/02 06:15:59;;;;;;;7.22;3.50;;;19.40;99.90;;;;;;5071047;28;20029;-62
2023/09/02 06:18:24;;;;;;;4.15;3.65;;;19.30;99.90;;;;;;5070783;28;20112;-61
2023/09/02 06:20:50;;;;;;;5.35;3.97;;;19.20;99.90;;;;;;5070687;28;20172;-60
2023/09/02 06:23:16;;;;;;;6.65;4.05;;;19.00;99.90;;;;;;5053235;28;20409;-60
2023/09/02 06:25:41;;;;;;;5.18;3.95;;;19.00;99.90;;;;;;5071135;28;20512;-60
2023/09/02 06:28:07;;;;;;;6.35;4.55;;;19.00;99.90;;;;;;5071127;28;20106;-60
2023/09/02 06:30:36;;;;;;;6.55;5.00;;;18.90;99.90;;;;;;5071013;28;20111;-59
2023/09/02 06:33:03;;;;;;;6.43;4.55;;;18.90;99.90;;;;;;5070622;28;20135;-61
2023/09/02 06:35:31;;;;;;;8.45;5.20;;;18.90;99.90;;;;;;5070823;28;20505;-61
2023/09/02 06:37:57;;;;;;;7.90;5.20;;;18.90;99.90;;;;;;5071048;28;20116;-59
2023/09/02 06:40:23;;;;;;;7.07;5.63;;;18.80;99.90;;;;;;5071167;28;20108;-61
2023/09/02 06:42:48;;;;;;;7.65;5.50;;;18.90;99.90;;;;;;5070859;28;20059;-60
2023/09/02 06:45:14;;;;;;;6.13;5.38;;;18.80;99.90;;;;;;5070823;28;20055;-60
2023/09/02 06:47:40;;;;;;;6.32;5.20;;;18.90;99.90;;;;;;5070314;28;20126;-60
2023/09/02 06:50:06;;;;;;;5.97;5.47;;;18.90;99.90;;;;;;5070661;28;20040;-60
2023/09/02 06:52:31;;;;;;;7.93;5.72;;;18.90;99.90;;;;;;5087780;28;20571;-61
2023/09/02 06:54:57;;;;;;;7.65;5.80;;;18.90;99.90;;;;;;5090976;28;20028;-61
2023/09/02 06:57:23;;;;;;;10.98;7.80;;;18.90;99.90;;;;;;5090986;28;20019;-61
2023/09/02 06:59:48;;;;;;;8.85;8.02;;;19.00;99.90;;;;;;5090438;28;20024;-60
2023/09/02 07:02:14;;;;;;;11.95;10.60;;;19.10;99.90;;;;;;5089936;28;20094;-61
2023/09/02 07:04:40;;;;;;;14.93;11.55;;;19.30;99.90;;;;;;5090304;28;20041;-61
2023/09/02 07:07:05;;;;;;;11.52;10.00;;;19.40;99.90;;;;;;5090836;28;20016;-61
2023/09/02 07:09:31;;;;;;;8.38;7.57;;;19.60;99.90;;;;;;5090807;28;20103;-61
2023/09/02 07:11:57;;;;;;;9.05;7.10;;;19.60;99.90;;;;;;5090958;28;20028;-61
2023/09/02 07:14:23;;;;;;;7.40;6.70;;;19.70;99.90;;;;;;5090876;28;20024;-60
2023/09/02 07:16:50;;;;;;;6.38;5.78;;;19.80;99.90;;;;;;5090982;28;20451;-60
2023/09/02 07:19:16;;;;;;;7.03;5.57;;;19.80;99.90;;;;;;5092564;28;20077;-60
2023/09/02 07:21:42;;;;;;;7.45;5.30;;;19.90;99.90;;;;;;5074357;28;20032;-59
2023/09/02 07:24:09;;;;;;;6.30;5.47;;;20.00;99.90;;;;;;5074100;28;20029;-61
2023/09/02 07:26:35;;;;;;;7.07;5.30;;;20.00;99.90;;;;;;5073810;28;20031;-61
2023/09/02 07:29:01;;;;;;;6.95;4.95;;;20.10;99.90;;;;;;5074496;28;20044;-60
2023/09/02 07:31:26;;;;;;;4.80;4.30;;;20.10;99.90;;;;;;5073955;28;20023;-62
2023/09/02 07:33:52;;;;;;;5.40;4.32;;;20.20;99.90;;;;;;5074373;28;20063;-61
2023/09/02 07:36:18;;;;;;;5.07;4.45;;;20.10;99.90;;;;;;5074183;28;20021;-61
2023/09/02 07:38:46;;;;;;;5.93;5.32;;;20.00;99.90;;;;;;5074142;28;20047;-61
2023/09/02 07:41:12;;;;;;;6.95;5.13;;;19.90;99.90;;;;;;5056907;28;20051;-61
2023/09/02 07:43:38;;;;;;;7.25;5.45;;;19.80;99.90;;;;;;5074342;28;20480;-61
2023/09/02 07:46:04;;;;;;;5.30;4.80;;;19.90;99.90;;;;;;5073507;28;20469;-61
2023/09/02 07:48:29;;;;;;;5.40;4.90;;;19.90;99.90;;;;;;5074047;28;20117;-61
2023/09/02 07:50:55;;;;;;;6.15;5.07;;;19.80;99.90;;;;;;5069652;28;20029;-61
2023/09/02 07:53:21;;;;;;;6.35;4.97;;;19.80;99.90;;;;;;5053782;28;20031;-61
2023/09/02 07:55:46;;;;;;;7.07;5.65;;;19.80;99.90;;;;;;5053754;28;20025;-60
2023/09/02 07:58:12;;;;;;;5.55;5.03;;;19.80;99.90;;;;;;5053857;28;20055;-61
2023/09/02 08:00:38;;;;;;;5.47;4.97;;;19.90;99.90;;;;;;5053561;28;20029;-60
2023/09/02 08:03:04;;;;;;;4.93;4.50;;;19.90;99.90;;;;;;5053623;28;20119;-61
2023/09/02 08:05:30;;;;;;;5.85;5.10;;;20.00;99.90;;;;;;5054457;28;20094;-62
2023/09/02 08:07:56;;;;;;;5.80;5.10;;;20.00;99.90;;;;;;5053694;28;20485;-61
2023/09/02 08:10:22;;;;;;;5.00;4.60;;;20.00;99.90;;;;;;5053747;28;20036;-61
2023/09/02 08:12:48;;;;;;;5.82;4.57;;;20.00;99.90;;;;;;5053361;28;20516;-61
2023/09/02 08:15:14;;;;;;;4.60;4.20;;;20.10;99.90;;;;;;5053188;28;20025;-61
2023/09/02 08:17:41;;;;;;;5.43;4.40;;;20.20;99.90;;;;;;5053293;28;20442;-61
2023/09/02 08:20:09;;;;;;;6.05;4.95;;;20.20;99.90;;;;;;5060688;28;20032;-61
2023/09/02 08:22:39;;;;;;;6.57;4.65;;;20.40;99.90;;;;;;5073259;28;20099;-61
2023/09/02 08:25:05;;;;;;;5.25;4.25;;;20.50;99.90;;;;;;5073173;28;20394;-61
2023/09/02 08:27:31;;;;;;;4.72;4.32;;;20.60;99.90;;;;;;5073279;28;20041;-61
2023/09/02 08:29:57;;;;;;;4.93;4.32;;;20.70;99.90;;;;;;5072372;28;20036;-61
2023/09/02 08:32:22;;;;;;;5.25;3.83;;;20.90;99.90;;;;;;5073086;28;20032;-61
2023/09/02 08:34:48;;;;;;;5.50;4.22;;;21.10;99.90;;;;;;5072934;28;20029;-61
2023/09/02 08:37:14;;;;;;;4.43;4.13;;;21.10;99.90;;;;;;5073150;28;20393;-61
2023/09/02 08:39:39;;;;;;;5.68;4.80;;;21.10;99.90;;;;;;5054926;28;20503;-61
2023/09/02 08:42:05;;;;;;;5.13;3.80;;;21.20;99.90;;;;;;5073245;28;20543;-62
2023/09/02 08:44:35;;;;;;;4.55;4.13;;;21.20;99.90;;;;;;5072470;28;20068;-61
2023/09/02 08:47:05;;;;;;;4.90;3.88;;;21.20;99.90;;;;;;5072789;28;20026;-61
2023/09/02 08:49:32;;;;;;;4.20;3.80;;;21.30;99.90;;;;;;5073279;28;20025;-61
2023/09/02 08:51:59;;;;;;;4.10;3.70;;;21.40;99.90;;;;;;5072626;28;20499;-62
2023/09/02 08:54:27;;;;;;;4.20;3.90;;;21.40;99.90;;;;;;5072777;28;20371;-61
2023/09/02 08:56:57;;;;;;;7.70;4.10;;;21.20;99.90;;;;;;5072656;28;20108;-61
2023/09/02 08:59:24;;;;;;;5.20;4.20;;;21.10;99.90;;;;;;5072467;28;20100;-61
2023/09/02 09:01:51;;;;;;;4.63;4.22;;;21.00;99.90;;;;;;5072688;28;20032;-61
2023/09/02 09:04:19;;;;;;;5.00;4.30;;;20.90;99.90;;;;;;5072708;28;20055;-61
2023/09/02 09:06:45;;;;;;;6.05;4.80;;;20.80;99.90;;;;;;5072583;28;20031;-61
2023/09/02 09:09:11;;;;;;;4.85;4.45;;;20.80;99.90;;;;;;5072440;28;20504;-61
2023/09/02 09:11:42;;;;;;;5.05;4.50;;;20.80;99.90;;;;;;5072649;28;20033;-61
2023/09/02 09:14:19;;;;;;;5.97;4.82;;;20.80;99.90;;;;;;5072342;28;20509;-62
2023/09/02 09:16:47;;;;;;;5.65;5.00;;;20.80;99.90;;;;;;5072357;28;20082;-61
2023/09/02 09:19:13;;;;;;;5.47;4.97;;;20.80;99.90;;;;;;5068969;28;20024;-61
2023/09/02 09:21:39;;;;;;;5.63;5.00;;;20.80;99.90;;;;;;5072134;28;20073;-61
2023/09/02 09:24:05;;;;;;;5.20;4.70;;;20.70;99.90;;;;;;5092003;28;20413;-61
2023/09/02 09:26:30;;;;;;;5.75;5.07;;;20.70;99.90;;;;;;5092592;28;20035;-61
2023/09/02 09:28:58;;;;;;;7.75;5.35;;;20.80;99.90;;;;;;5092348;28;20032;-62
2023/09/02 09:31:25;;;;;;;5.75;5.13;;;20.70;99.90;;;;;;5092383;28;20036;-61
2023/09/02 09:33:58;;;;;;;5.82;5.30;;;20.70;99.90;;;;;;5092276;28;20023;-61
2023/09/02 09:36:25;;;;;;;7.65;5.40;;;20.80;99.90;;;;;;5092388;28;20082;-61
2023/09/02 09:38:54;;;;;;;7.00;5.68;;;20.80;99.90;;;;;;5092482;28;20032;-61
2023/09/02 09:41:20;;;;;;;6.15;5.10;;;20.80;99.90;;;;;;5091702;28;20028;-61
2023/09/02 09:44:05;;;;;;;7.07;6.05;;;21.00;99.90;;;;;;5091390;28;20027;-61
2023/09/02 09:46:51;;;;;;;7.32;6.53;;;21.10;99.90;;;;;;5092034;28;20024;-61
2023/09/02 09:49:26;;;;;;;8.10;6.65;;;21.40;99.90;;;;;;5092402;28;20234;-62
2023/09/02 09:52:09;;;;;;;8.13;7.00;;;21.50;99.90;;;;;;5092308;28;20125;-61
2023/09/02 09:54:49;;;;;;;8.02;6.88;;;21.50;99.90;;;;;;5092145;28;20035;-61
2023/09/02 09:57:34;;;;;;;6.75;6.15;;;21.70;99.90;;;;;;5091421;28;20024;-61
2023/09/02 10:00:00;;;;;;;8.30;6.40;;;21.60;99.90;;;;;;5092163;28;20531;-62
2023/09/02 10:02:25;;;;;;;7.28;6.43;;;21.70;99.90;;;;;;5092010;28;20059;-62
2023/09/02 10:05:00;;;;;;;7.45;6.50;;;21.70;99.90;;;;;;5091725;28;20104;-61
2023/09/02 10:07:31;;;;;;;7.90;6.40;;;21.70;99.90;;;;;;5091683;28;20036;-61
2023/09/02 10:10:00;;;;;;;8.82;6.38;;;21.70;99.90;;;;;;5091708;28;20031;-61
2023/09/02 10:12:27;;;;;;;7.35;6.65;;;21.70;99.90;;;;;;5091553;28;20095;-61
2023/09/02 10:14:53;;;;;;;7.45;6.68;;;21.60;99.90;;;;;;5073464;28;20161;-61
2023/09/02 10:17:19;;;;;;;7.28;6.50;;;21.60;99.90;;;;;;5091689;28;20115;-61
2023/09/02 10:19:46;;;;;;;7.75;6.95;;;21.60;99.90;;;;;;5091513;28;20026;-62
2023/09/02 10:22:19;;;;;;;7.95;6.93;;;21.40;99.90;;;;;;5091492;28;20036;-62
2023/09/02 10:24:55;;;;;;;6.55;5.85;;;21.50;99.90;;;;;;5091023;28;20043;-62
2023/09/02 10:27:23;;;;;;;5.72;5.22;;;21.40;99.90;;;;;;5091593;28;20078;-61
2023/09/02 10:29:57;;;;;;;7.22;5.40;;;21.50;99.90;;;;;;5091367;28;20032;-61
2023/09/02 10:32:41;;;;;;;6.20;5.35;;;21.50;99.90;;;;;;5091362;28;20021;-61
2023/09/02 10:35:18;;;;;;;8.25;6.00;;;21.50;99.90;;;;;;5091521;28;20404;-60
2023/09/02 10:37:55;;;;;;;7.38;5.47;;;21.70;99.90;;;;;;5073401;28;20058;-61
2023/09/02 10:40:26;;;;;;;5.32;4.82;;;21.80;99.90;;;;;;5091397;28;20073;-61
2023/09/02 10:42:54;;;;;;;5.75;4.78;;;21.80;99.90;;;;;;5091239;28;20028;-62
2023/09/02 10:45:21;;;;;;;5.90;4.85;;;21.90;99.90;;;;;;5091242;28;20028;-62
2023/09/02 10:47:48;;;;;;;5.35;4.85;;;22.00;99.90;;;;;;5091159;28;20024;-61
2023/09/02 10:50:16;;;;;;;6.35;5.20;;;22.00;99.90;;;;;;5091586;28;20158;-61
2023/09/02 10:52:42;;;;;;;5.47;4.60;;;22.10;99.90;;;;;;5090722;28;20499;-62
2023/09/02 10:55:09;;;;;;;6.05;4.90;;;22.10;99.90;;;;;;5094797;28;20153;-61
2023/09/02 10:57:59;;;;;;;7.55;5.20;;;22.10;99.90;;;;;;5095144;28;20020;-62
2023/09/02 11:00:28;;;;;;;5.70;4.93;;;22.20;99.90;;;;;;5095296;28;20051;-61
2023/09/02 11:02:56;;;;;;;5.95;5.00;;;22.20;99.90;;;;;;5095184;28;20040;-61
2023/09/02 11:05:23;;;;;;;5.32;4.82;;;22.30;99.90;;;;;;5095425;28;20062;-62
2023/09/02 11:07:49;;;;;;;5.10;4.60;;;22.40;99.90;;;;;;5077039;28;20032;-62
2023/09/02 11:10:16;;;;;;;5.60;4.50;;;22.70;99.90;;;;;;5094627;28;20497;-62
2023/09/02 11:12:59;;;;;;;8.05;4.70;;;22.90;99.90;;;;;;5094977;28;20456;-62
2023/09/02 11:15:26;;;;;;;5.70;4.55;;;23.00;99.90;;;;;;5094915;28;20473;-61
2023/09/02 11:17:52;;;;;;;6.45;4.75;;;23.00;99.90;;;;;;5095320;28;20078;-61
2023/09/02 11:20:25;;;;;;;5.25;4.30;;;23.10;99.90;;;;;;5094684;28;20501;-61
2023/09/02 11:22:59;;;;;;;5.20;4.70;;;23.20;99.90;;;;;;5094316;28;20076;-62
2023/09/02 11:25:39;;;;;;;4.72;4.32;;;23.20;99.90;;;;;;5095134;28;20036;-62
2023/09/02 11:28:05;;;;;;;7.30;4.38;;;23.10;99.90;;;;;;5094662;28;20495;-61
2023/09/02 11:30:37;;;;;;;6.88;4.10;;;23.10;99.90;;;;;;5094813;28;20099;-62
2023/09/02 11:33:03;;;;;;;5.55;4.13;;;23.20;99.90;;;;;;5094716;28;20027;-62
2023/09/02 11:35:37;;;;;;;5.40;4.20;;;23.20;99.90;;;;;;5094535;28;20028;-62
2023/09/02 11:38:20;;;;;;;4.30;3.92;;;23.20;99.90;;;;;;5094241;28;20159;-61
2023/09/02 11:40:46;;;;;;;;;;;23.30;99.90;;;;;;5094962;28;20063;-61
2023/09/02 11:43:18;;;;;;;4.85;3.83;;;23.20;99.90;;;;;;5094548;28;19955;-62
2023/09/02 11:45:45;;;;;;;4.47;4.05;;;23.10;99.90;;;;;;5094393;28;20024;-61
2023/09/02 11:48:11;;;;;;;5.40;3.88;;;23.10;99.90;;;;;;5094363;28;20054;-62
2023/09/02 11:50:38;;;;;;;5.97;4.00;;;23.10;99.90;;;;;;5094231;28;20056;-61
2023/09/02 11:53:05;;;;;;;4.80;3.92;;;23.10;99.90;;;;;;5093862;28;20111;-61
2023/09/02 11:55:31;;;;;;;4.50;3.78;;;23.00;99.90;;;;;;5094176;28;20031;-61
2023/09/02 11:57:57;;;;;;;4.47;3.72;;;23.10;99.90;;;;;;5094186;28;20032;-61
2023/09/02 12:00:25;;;;;;;4.57;4.00;;;23.10;99.90;;;;;;5094135;28;20024;-61
2023/09/02 12:02:55;;;;;;;5.85;3.63;;;23.20;99.90;;;;;;5093893;28;20031;-62
2023/09/02 12:05:20;;;;;;;4.63;3.83;;;23.30;99.90;;;;;;5092974;28;20144;-61
2023/09/02 12:07:47;;;;;;;4.10;3.70;;;23.30;99.90;;;;;;5093611;28;20111;-61
2023/09/02 12:10:15;;;;;;;5.45;4.18;;;23.30;99.90;;;;;;5094382;28;20024;-61
2023/09/02 12:12:43;;;;;;;5.15;3.90;;;23.30;99.90;;;;;;5093993;28;20044;-61
2023/09/02 12:15:19;;;;;;;3.92;3.53;;;23.20;99.90;;;;;;5093861;28;20024;-61
2023/09/02 12:17:46;;;;;;;4.75;3.63;;;23.20;99.90;;;;;;5094274;28;20124;-62
2023/09/02 12:20:13;;;;;;;4.22;3.83;;;23.20;99.90;;;;;;5093630;28;20484;-62
2023/09/02 12:22:40;;;;;;;4.22;3.85;;;23.20;99.90;;;;;;5093227;28;20425;-62
2023/09/02 12:25:34;;;;;;;4.68;3.78;;;23.20;99.90;;;;;;5093684;28;20028;-61
2023/09/02 12:28:14;;;;;;;;;;;23.20;99.90;;;;;;5091391;28;20052;-62
2023/09/02 12:30:41;;;;;;;4.40;3.60;;;23.30;99.90;;;;;;5093981;28;19904;-62
2023/09/02 12:33:07;;;;;;;5.82;3.50;;;23.50;99.90;;;;;;5093526;28;20032;-61
2023/09/02 12:35:33;;;;;;;4.10;3.70;;;23.60;99.90;;;;;;5093062;28;20493;-61
2023/09/02 12:38:03;;;;;;;4.95;3.60;;;23.80;99.90;;;;;;5093303;28;20024;-62
2023/09/02 12:40:29;;;;;;;6.13;3.90;;;23.90;99.90;;;;;;5093530;28;20020;-61
2023/09/02 12:42:55;;;;;;;4.00;3.70;;;23.90;99.90;;;;;;5093285;28;20041;-61
2023/09/02 12:45:32;;;;;;;4.72;3.90;;;23.90;99.90;;;;;;5093593;28;20028;-61
2023/09/02 12:47:59;;;;;;;4.20;3.80;;;24.10;99.90;;;;;;5093260;28;20463;-62
2023/09/02 12:50:26;;;;;;;6.78;4.00;;;24.10;99.90;;;;;;5092707;28;20488;-62
2023/09/02 12:52:57;;;;;;;5.78;3.78;;;24.20;99.90;;;;;;5092892;28;20476;-61